Time;durP1;ratioP1;P1;durP2;ratioP2;P2;SDS_P1;SDS_P2;PMS_P1;PMS_P2;Temp;Humidity;BMP_temperature;BMP_pressure;BME280_temperature;BME280_humidity;BME280_pressure;Samples;Min_cycle;Max_cycle;Signal;HPM_P1;HPM_P2
2023/08/13 00:01:47;;;;;;;2.47;1.10;;;;;;;;;;8263959;28;20033;-58
2023/08/13 00:05:47;;;;;;;1.20;1.10;;;;;;;;;;8268190;28;20033;-58
2023/08/13 00:09:47;;;;;;;3.75;0.90;;;;;;;;;;8265577;28;20026;-58
2023/08/13 00:13:48;;;;;;;1.53;1.00;;;;;;;;;;8263220;28;20017;-58
2023/08/13 00:17:48;;;;;;;2.33;1.00;;;;;;;;;;8262979;28;20109;-60
2023/08/13 00:21:48;;;;;;;2.30;0.87;;;;;;;;;;8261828;28;20105;-58
2023/08/13 00:25:48;;;;;;;2.03;0.90;;;;;;;;;;8263387;28;20036;-58
2023/08/13 00:29:48;;;;;;;2.80;0.90;;;;;;;;;;8263589;28;20087;-58
2023/08/13 00:33:49;;;;;;;1.13;0.85;;;;;;;;;;8263948;28;20056;-58
2023/08/13 00:37:49;;;;;;;2.58;1.10;;;;;;;;;;8263141;28;20469;-58
2023/08/13 00:41:49;;;;;;;1.80;1.10;;;;;;;;;;8265072;28;20171;-58
2023/08/13 00:45:50;;;;;;;1.23;1.13;;;;;;;;;;8262793;28;21107;-58
2023/08/13 00:49:50;;;;;;;1.45;1.00;;;;;;;;;;8262560;28;20685;-58
2023/08/13 00:53:50;;;;;;;2.47;1.13;;;;;;;;;;8263595;28;20026;-58
2023/08/13 00:57:50;;;;;;;2.63;1.13;;;;;;;;;;8268983;28;20021;-57
2023/08/13 01:01:51;;;;;;;2.38;1.25;;;;;;;;;;8261869;28;20281;-57
2023/08/13 01:05:53;;;;;;;2.78;1.00;;;;;;;;;;8265354;28;20410;-58
2023/08/13 01:10:00;;;;;;;2.60;1.10;;;;;;;;;;8261751;28;20025;-57
2023/08/13 01:14:07;;;;;;;1.42;1.10;;;;;;;;;;8266896;28;20113;-58
2023/08/13 01:18:08;;;;;;;2.55;1.00;;;;;;;;;;8261160;28;20137;-58
2023/08/13 01:22:09;;;;;;;3.17;0.88;;;;;;;;;;8263229;28;20009;-58
2023/08/13 01:26:14;;;;;;;1.92;1.02;;;;;;;;;;8261379;28;20512;-58
2023/08/13 01:30:40;;;;;;;1.00;1.00;;;;;;;;;;8262154;28;20028;-58
2023/08/13 01:34:41;;;;;;;3.17;0.95;;;;;;;;;;8260495;28;20041;-58
2023/08/13 01:38:42;;;;;;;1.13;0.90;;;;;;;;;;8262013;28;20091;-59
2023/08/13 01:42:42;;;;;;;0.80;0.80;;;;;;;;;;8258070;28;20038;-58
2023/08/13 01:46:42;;;;;;;1.02;0.93;;;;;;;;;;8262780;28;20038;-58
2023/08/13 01:50:42;;;;;;;0.97;0.90;;;;;;;;;;8258212;28;20113;-58
2023/08/13 01:54:42;;;;;;;1.83;0.90;;;;;;;;;;8264243;28;20403;-58
2023/08/13 01:58:43;;;;;;;1.85;1.00;;;;;;;;;;8268101;28;20025;-58
2023/08/13 02:02:43;;;;;;;2.47;1.17;;;;;;;;;;8267913;28;20034;-58
2023/08/13 02:06:43;;;;;;;1.50;1.40;;;;;;;;;;8268032;28;20151;-58
2023/08/13 02:10:43;;;;;;;1.50;1.40;;;;;;;;;;8269541;28;20091;-58
2023/08/13 02:14:44;;;;;;;1.60;1.45;;;;;;;;;;8269389;28;20029;-58
2023/08/13 02:18:44;;;;;;;2.33;1.40;;;;;;;;;;8269382;28;20026;-58
2023/08/13 02:22:44;;;;;;;2.65;1.70;;;;;;;;;;8265291;28;20936;-58
2023/08/13 02:26:44;;;;;;;2.10;1.60;;;;;;;;;;8266303;28;20034;-58
2023/08/13 02:30:44;;;;;;;2.58;1.75;;;;;;;;;;8270798;28;20038;-58
2023/08/13 02:34:45;;;;;;;3.30;1.70;;;;;;;;;;8266277;28;20063;-58
2023/08/13 02:38:46;;;;;;;2.50;1.90;;;;;;;;;;8266511;28;20079;-58
2023/08/13 02:42:46;;;;;;;2.58;1.60;;;;;;;;;;8268597;28;20033;-57
2023/08/13 02:46:47;;;;;;;1.60;1.50;;;;;;;;;;8264314;28;20041;-58
2023/08/13 02:50:47;;;;;;;2.40;1.70;;;;;;;;;;8267455;28;20099;-58
2023/08/13 02:54:47;;;;;;;2.60;1.60;;;;;;;;;;8268077;28;20029;-58
2023/08/13 02:58:47;;;;;;;1.83;1.50;;;;;;;;;;8268856;28;20026;-58
2023/08/13 03:02:47;;;;;;;2.92;1.60;;;;;;;;;;8267219;28;20123;-58
2023/08/13 03:06:48;;;;;;;1.65;1.50;;;;;;;;;;8265973;28;20033;-58
2023/08/13 03:10:48;;;;;;;3.03;1.60;;;;;;;;;;8268592;28;20148;-58
2023/08/13 03:14:48;;;;;;;1.60;1.50;;;;;;;;;;8268713;28;20017;-58
2023/08/13 03:18:48;;;;;;;2.67;1.40;;;;;;;;;;8266657;28;20033;-58
2023/08/13 03:22:48;;;;;;;1.63;1.50;;;;;;;;;;8268589;28;20029;-58
2023/08/13 03:26:49;;;;;;;2.13;1.60;;;;;;;;;;8266869;28;20087;-58
2023/08/13 03:30:49;;;;;;;1.88;1.40;;;;;;;;;;8264684;28;20452;-58
2023/08/13 03:34:49;;;;;;;2.55;1.90;;;;;;;;;;8266680;28;20022;-58
2023/08/13 03:38:49;;;;;;;2.58;1.80;;;;;;;;;;8262826;28;20025;-58
2023/08/13 03:42:49;;;;;;;1.80;1.70;;;;;;;;;;8267184;28;20124;-58
2023/08/13 03:46:50;;;;;;;3.08;1.90;;;;;;;;;;8264780;28;20050;-59
2023/08/13 03:50:50;;;;;;;3.97;2.30;;;;;;;;;;8260940;28;20041;-57
2023/08/13 03:54:50;;;;;;;2.80;2.60;;;;;;;;;;8265001;28;20092;-58
2023/08/13 03:58:50;;;;;;;3.63;3.10;;;;;;;;;;8267751;28;20040;-58
2023/08/13 04:02:51;;;;;;;4.93;3.30;;;;;;;;;;8265504;28;20042;-58
2023/08/13 04:06:51;;;;;;;3.50;3.20;;;;;;;;;;8264275;28;20029;-58
2023/08/13 04:10:52;;;;;;;5.20;3.47;;;;;;;;;;8264256;28;20060;-58
2023/08/13 04:14:52;;;;;;;3.70;3.33;;;;;;;;;;8261908;28;20171;-58
2023/08/13 04:18:52;;;;;;;6.18;3.78;;;;;;;;;;8266557;28;20064;-58
2023/08/13 04:22:53;;;;;;;4.13;3.57;;;;;;;;;;8260064;28;20418;-58
2023/08/13 04:26:53;;;;;;;3.50;3.20;;;;;;;;;;8262842;28;20057;-58
2023/08/13 04:30:53;;;;;;;3.95;3.30;;;;;;;;;;8268880;28;20110;-58
2023/08/13 04:34:53;;;;;;;3.97;3.47;;;;;;;;;;8262971;28;20022;-57
2023/08/13 04:38:54;;;;;;;3.95;3.10;;;;;;;;;;8265619;28;20280;-58
2023/08/13 04:42:54;;;;;;;5.50;3.38;;;;;;;;;;8267327;28;20041;-58
2023/08/13 04:46:54;;;;;;;3.42;3.13;;;;;;;;;;8263937;28;20030;-58
2023/08/13 04:50:54;;;;;;;3.92;3.38;;;;;;;;;;8264077;28;20022;-58
2023/08/13 04:54:54;;;;;;;4.60;3.50;;;;;;;;;;8265814;28;20029;-58
2023/08/13 04:58:55;;;;;;;4.25;3.25;;;;;;;;;;8265968;28;21571;-58
2023/08/13 05:02:55;;;;;;;3.80;2.90;;;;;;;;;;8263466;28;20046;-58
2023/08/13 05:06:55;;;;;;;2.78;2.53;;;;;;;;;;8264942;28;20030;-58
2023/08/13 05:10:55;;;;;;;3.23;2.70;;;;;;;;;;8264747;28;20058;-58
2023/08/13 05:14:56;;;;;;;2.53;2.33;;;;;;;;;;8264271;28;20308;-58
2023/08/13 05:18:56;;;;;;;3.50;2.38;;;;;;;;;;8262214;28;20092;-58
2023/08/13 05:22:56;;;;;;;3.13;2.22;;;;;;;;;;8260056;28;20033;-58
2023/08/13 05:26:56;;;;;;;3.63;2.57;;;;;;;;;;8265450;28;20029;-58
2023/08/13 05:30:57;;;;;;;4.28;2.50;;;;;;;;;;8267313;28;20034;-59
2023/08/13 05:34:57;;;;;;;3.58;2.17;;;;;;;;;;8272704;28;20153;-58
2023/08/13 05:38:57;;;;;;;7.32;2.78;;;;;;;;;;8267848;28;20033;-58
2023/08/13 05:42:57;;;;;;;4.20;2.47;;;;;;;;;;8273473;28;20033;-58
2023/08/13 05:46:57;;;;;;;3.90;2.70;;;;;;;;;;8267774;28;20050;-58
2023/08/13 05:50:57;;;;;;;2.65;2.42;;;;;;;;;;8269051;28;20087;-60
2023/08/13 05:54:58;;;;;;;3.33;2.50;;;;;;;;;;8268658;28;20022;-57
2023/08/13 05:58:58;;;;;;;4.55;2.50;;;;;;;;;;8271662;28;20033;-58
2023/08/13 06:02:58;;;;;;;3.55;2.30;;;;;;;;;;8264479;28;20042;-58
2023/08/13 06:06:58;;;;;;;2.92;2.22;;;;;;;;;;8268840;28;20034;-59
2023/08/13 06:10:58;;;;;;;3.70;2.22;;;;;;;;;;8267613;28;20107;-58
2023/08/13 06:14:59;;;;;;;2.90;2.25;;;;;;;;;;8270692;28;20030;-58
2023/08/13 06:18:59;;;;;;;2.60;2.40;;;;;;;;;;8263886;28;20393;-58
2023/08/13 06:22:59;;;;;;;2.80;2.60;;;;;;;;;;8262161;28;20029;-58
2023/08/13 06:27:00;;;;;;;3.10;2.70;;;;;;;;;;8264462;28;20474;-58
2023/08/13 06:31:01;;;;;;;2.77;2.27;;;;;;;;;;8267581;28;20045;-58
2023/08/13 06:35:01;;;;;;;2.78;2.15;;;;;;;;;;8266756;28;20514;-58
2023/08/13 06:39:01;;;;;;;2.40;2.20;;;;;;;;;;8268554;28;20785;-58
2023/08/13 06:43:02;;;;;;;4.03;2.20;;;;;;;;;;8267884;28;20276;-57
2023/08/13 06:47:02;;;;;;;3.63;2.30;;;;;;;;;;8269076;28;20086;-59
2023/08/13 06:51:02;;;;;;;2.67;2.17;;;;;;;;;;8267085;28;20448;-58
2023/08/13 06:55:02;;;;;;;3.22;1.95;;;;;;;;;;8268984;28;20029;-59
2023/08/13 06:59:03;;;;;;;3.10;2.17;;;;;;;;;;8267939;28;20033;-58
2023/08/13 07:03:04;;;;;;;3.40;2.15;;;;;;;;;;8268019;28;20045;-58
2023/08/13 07:07:04;;;;;;;3.22;1.80;;;;;;;;;;8265847;28;20061;-59
2023/08/13 07:11:04;;;;;;;2.30;1.80;;;;;;;;;;8263780;28;20025;-59
2023/08/13 07:15:04;;;;;;;2.47;1.50;;;;;;;;;;8265402;28;20029;-59
2023/08/13 07:19:05;;;;;;;4.15;1.63;;;;;;;;;;8265237;28;20034;-59
2023/08/13 07:23:05;;;;;;;2.80;1.70;;;;;;;;;;8266204;28;20537;-59
2023/08/13 07:27:05;;;;;;;2.33;1.90;;;;;;;;;;8267708;28;20291;-59
2023/08/13 07:31:06;;;;;;;3.80;2.05;;;;;;;;;;8263438;28;20111;-59
2023/08/13 07:35:10;;;;;;;3.17;2.17;;;;;;;;;;8264839;28;20036;-59
2023/08/13 07:39:10;;;;;;;3.40;1.98;;;;;;;;;;8263936;28;20030;-59
2023/08/13 07:43:10;;;;;;;3.85;2.00;;;;;;;;;;8271142;28;20145;-59
2023/08/13 07:47:11;;;;;;;3.15;1.80;;;;;;;;;;8265438;28;20048;-60
2023/08/13 07:51:11;;;;;;;3.60;1.73;;;;;;;;;;8257681;28;20059;-60
2023/08/13 07:55:11;;;;;;;4.30;1.53;;;;;;;;;;8264597;28;20021;-59
2023/08/13 07:59:11;;;;;;;4.43;1.40;;;;;;;;;;8264243;28;20944;-59
2023/08/13 08:03:12;;;;;;;3.60;1.70;;;;;;;;;;8266118;28;20050;-60
2023/08/13 08:07:12;;;;;;;4.57;1.50;;;;;;;;;;8262522;28;20032;-59
2023/08/13 08:11:13;;;;;;;4.67;1.40;;;;;;;;;;8266377;28;20472;-60
2023/08/13 08:15:13;;;;;;;2.83;1.50;;;;;;;;;;8265114;28;20280;-60
2023/08/13 08:19:13;;;;;;;2.60;1.33;;;;;;;;;;8266611;28;20749;-59
2023/08/13 08:23:14;;;;;;;8.88;1.60;;;;;;;;;;8263876;28;20624;-60
2023/08/13 08:27:14;;;;;;;3.63;1.60;;;;;;;;;;8263323;28;20029;-60
2023/08/13 08:31:14;;;;;;;5.87;1.90;;;;;;;;;;8267486;28;20037;-60
2023/08/13 08:35:14;;;;;;;2.00;1.33;;;;;;;;;;8268347;28;20280;-61
2023/08/13 08:39:15;;;;;;;4.43;1.60;;;;;;;;;;8264919;28;20033;-62
2023/08/13 08:43:16;;;;;;;3.88;1.60;;;;;;;;;;8266226;28;20057;-61
2023/08/13 08:47:17;;;;;;;4.55;1.30;;;;;;;;;;8263562;28;20361;-61
2023/08/13 08:51:17;;;;;;;2.83;1.35;;;;;;;;;;8266055;28;20548;-61
2023/08/13 08:55:18;;;;;;;5.17;1.70;;;;;;;;;;8267960;28;20014;-61
2023/08/13 08:59:19;;;;;;;3.45;1.45;;;;;;;;;;8266014;28;20030;-61
2023/08/13 09:03:20;;;;;;;1.92;1.40;;;;;;;;;;8268920;28;20140;-61
2023/08/13 09:07:27;;;;;;;1.98;1.40;;;;;;;;;;8270476;28;20021;-61
2023/08/13 09:11:29;;;;;;;2.97;1.52;;;;;;;;;;8276008;28;20026;-61
2023/08/13 09:15:29;;;;;;;2.97;1.58;;;;;;;;;;8273298;28;20040;-61
2023/08/13 09:19:32;;;;;;;2.92;1.30;;;;;;;;;;8270395;28;20022;-61
2023/08/13 09:23:32;;;;;;;5.10;1.60;;;;;;;;;;8272731;28;20044;-61
2023/08/13 09:27:32;;;;;;;6.32;1.45;;;;;;;;;;8274414;28;20806;-61
2023/08/13 09:31:33;;;;;;;2.47;1.40;;;;;;;;;;8273040;28;20721;-61
2023/08/13 09:35:33;;;;;;;5.47;1.50;;;;;;;;;;8273257;28;20155;-61
2023/08/13 09:39:33;;;;;;;2.35;1.50;;;;;;;;;;8275914;28;20104;-61
2023/08/13 09:43:34;;;;;;;3.45;1.45;;;;;;;;;;8272394;28;20027;-61
2023/08/13 09:47:35;;;;;;;3.20;1.40;;;;;;;;;;8270968;28;20084;-61
2023/08/13 09:51:37;;;;;;;1.88;1.40;;;;;;;;;;8267835;28;20555;-61
2023/08/13 09:55:47;;;;;;;3.30;1.30;;;;;;;;;;8273168;28;20753;-61
2023/08/13 09:59:48;;;;;;;2.00;1.38;;;;;;;;;;8272882;28;20268;-61
2023/08/13 10:03:49;;;;;;;2.33;1.30;;;;;;;;;;8273890;28;20789;-61
2023/08/13 10:07:49;;;;;;;3.10;1.27;;;;;;;;;;8270807;28;20544;-61
2023/08/13 10:11:50;;;;;;;1.85;1.20;;;;;;;;;;8265614;28;20032;-61
2023/08/13 10:15:50;;;;;;;2.58;1.50;;;;;;;;;;8268243;28;20048;-61
2023/08/13 10:19:51;;;;;;;3.78;1.42;;;;;;;;;;8270303;28;20480;-61
2023/08/13 10:23:54;;;;;;;3.13;1.30;;;;;;;;;;8272772;28;20037;-61
2023/08/13 10:27:54;;;;;;;2.50;1.20;;;;;;;;;;8262768;28;20486;-61
2023/08/13 10:31:55;;;;;;;5.18;1.33;;;;;;;;;;8265705;28;20181;-60
2023/08/13 10:35:58;;;;;;;4.28;1.40;;;;;;;;;;8270221;28;20096;-61
2023/08/13 10:39:58;;;;;;;2.03;1.20;;;;;;;;;;8270429;28;20026;-61
2023/08/13 10:43:59;;;;;;;1.52;1.10;;;;;;;;;;8269486;28;20136;-61
2023/08/13 10:48:03;;;;;;;1.83;1.20;;;;;;;;;;8269063;28;20775;-61
2023/08/13 10:52:04;;;;;;;2.88;1.55;;;;;;;;;;8271384;28;20039;-60
2023/08/13 10:56:04;;;;;;;3.70;1.40;;;;;;;;;;8269753;28;20040;-61
2023/08/13 11:00:05;;;;;;;3.15;1.30;;;;;;;;;;8270682;28;20176;-61
2023/08/13 11:04:05;;;;;;;2.58;1.23;;;;;;;;;;8268613;28;20971;-61
2023/08/13 11:08:06;;;;;;;3.08;1.23;;;;;;;;;;8266909;28;20056;-61
2023/08/13 11:12:07;;;;;;;2.33;1.38;;;;;;;;;;8269406;28;20045;-61
2023/08/13 11:16:07;;;;;;;1.90;1.30;;;;;;;;;;8268387;28;20724;-61
2023/08/13 11:20:09;;;;;;;3.17;1.30;;;;;;;;;;8267845;28;20147;-61
2023/08/13 11:24:10;;;;;;;1.80;1.10;;;;;;;;;;8269335;28;20026;-61
2023/08/13 11:28:10;;;;;;;2.78;1.13;;;;;;;;;;8267790;28;20145;-61
2023/08/13 11:32:10;;;;;;;2.85;1.20;;;;;;;;;;8265876;28;20045;-61
2023/08/13 11:36:10;;;;;;;2.60;1.08;;;;;;;;;;8269227;28;20025;-61
2023/08/13 11:40:11;;;;;;;2.63;1.30;;;;;;;;;;8265655;28;20056;-61
2023/08/13 11:44:11;;;;;;;3.73;1.40;;;;;;;;;;8269264;28;20036;-61
2023/08/13 11:48:11;;;;;;;1.45;1.35;;;;;;;;;;8264427;28;20042;-61
2023/08/13 11:52:17;;;;;;;3.10;1.33;;;;;;;;;;8268222;28;20025;-61
2023/08/13 11:56:18;;;;;;;2.58;1.15;;;;;;;;;;8267943;28;20285;-61
2023/08/13 12:00:19;;;;;;;2.97;1.20;;;;;;;;;;8265928;28;20095;-61
2023/08/13 12:04:19;;;;;;;2.85;1.30;;;;;;;;;;8264899;28;20507;-61
2023/08/13 12:08:20;;;;;;;3.22;1.30;;;;;;;;;;8265900;28;20025;-61
2023/08/13 12:12:20;;;;;;;3.33;1.30;;;;;;;;;;8269227;28;20022;-61
2023/08/13 12:16:20;;;;;;;2.42;1.35;;;;;;;;;;8269366;28;20048;-61
2023/08/13 12:20:21;;;;;;;1.95;1.13;;;;;;;;;;8267336;28;20035;-61
2023/08/13 12:24:21;;;;;;;3.45;1.40;;;;;;;;;;8266172;28;20033;-61
2023/08/13 12:28:21;;;;;;;2.53;1.20;;;;;;;;;;8264857;28;20032;-61
2023/08/13 12:32:21;;;;;;;2.25;1.10;;;;;;;;;;8265126;28;20045;-61
2023/08/13 12:36:22;;;;;;;2.75;1.10;;;;;;;;;;8264796;28;20092;-62
2023/08/13 12:40:22;;;;;;;1.67;1.00;;;;;;;;;;8265418;28;20025;-62
2023/08/13 12:44:23;;;;;;;4.05;1.25;;;;;;;;;;8269164;28;20052;-62
2023/08/13 12:48:23;;;;;;;2.90;1.20;;;;;;;;;;8265563;28;20843;-61
2023/08/13 12:52:24;;;;;;;3.22;1.30;;;;;;;;;;8268802;28;20152;-61
2023/08/13 12:56:25;;;;;;;2.00;1.40;;;;;;;;;;8265828;28;20428;-61
2023/08/13 13:00:25;;;;;;;3.08;1.42;;;;;;;;;;8266898;28;20912;-61
2023/08/13 13:04:26;;;;;;;2.22;1.45;;;;;;;;;;8265522;28;20029;-61
2023/08/13 13:08:26;;;;;;;2.40;1.10;;;;;;;;;;8264176;28;20079;-61
2023/08/13 13:12:26;;;;;;;2.03;1.00;;;;;;;;;;8266031;28;20797;-61
2023/08/13 13:16:26;;;;;;;1.67;1.00;;;;;;;;;;8266127;28;20099;-61
2023/08/13 13:20:26;;;;;;;1.42;1.20;;;;;;;;;;8266357;28;20029;-61
2023/08/13 13:24:26;;;;;;;2.17;1.00;;;;;;;;;;8265746;28;20040;-62
2023/08/13 13:28:27;;;;;;;1.55;1.25;;;;;;;;;;8267033;28;20060;-61
2023/08/13 13:32:27;;;;;;;1.40;1.00;;;;;;;;;;8266026;28;20056;-61
2023/08/13 13:36:27;;;;;;;2.03;1.30;;;;;;;;;;8269750;28;20033;-61
2023/08/13 13:40:27;;;;;;;3.22;1.20;;;;;;;;;;8265576;28;20017;-61
2023/08/13 13:44:28;;;;;;;1.93;1.20;;;;;;;;;;8265840;28;20048;-61
2023/08/13 13:48:28;;;;;;;2.10;1.20;;;;;;;;;;8262555;28;20128;-62
2023/08/13 13:52:28;;;;;;;2.00;1.25;;;;;;;;;;8269005;28;20103;-62
2023/08/13 13:56:28;;;;;;;2.22;1.30;;;;;;;;;;8272373;28;20033;-61
2023/08/13 14:00:28;;;;;;;1.80;1.10;;;;;;;;;;8271468;28;20421;-61
2023/08/13 14:04:29;;;;;;;2.22;1.30;;;;;;;;;;8269692;28;20183;-61
2023/08/13 14:08:29;;;;;;;2.88;1.00;;;;;;;;;;8272071;28;20083;-61
2023/08/13 14:12:29;;;;;;;2.25;1.13;;;;;;;;;;8270828;28;20026;-61
2023/08/13 14:16:29;;;;;;;2.47;1.20;;;;;;;;;;8269894;28;20041;-61
2023/08/13 14:20:30;;;;;;;1.53;1.10;;;;;;;;;;8269729;28;20136;-61
2023/08/13 14:24:30;;;;;;;1.38;1.10;;;;;;;;;;8267052;28;20024;-61
2023/08/13 14:28:30;;;;;;;1.48;1.30;;;;;;;;;;8271191;28;20566;-61
2023/08/13 14:32:30;;;;;;;1.33;0.98;;;;;;;;;;8271023;28;20025;-61
2023/08/13 14:36:30;;;;;;;4.82;1.30;;;;;;;;;;8270436;28;20034;-61
2023/08/13 14:40:30;;;;;;;2.75;1.33;;;;;;;;;;8269104;28;20041;-61
2023/08/13 14:44:30;;;;;;;3.05;1.10;;;;;;;;;;8270676;28;20497;-61
2023/08/13 14:48:31;;;;;;;1.85;1.25;;;;;;;;;;8272815;28;20765;-61
2023/08/13 14:52:31;;;;;;;1.60;1.00;;;;;;;;;;8269396;28;20036;-61
2023/08/13 14:56:31;;;;;;;1.30;1.20;;;;;;;;;;8271498;28;20132;-61
2023/08/13 15:00:31;;;;;;;3.05;1.10;;;;;;;;;;8270569;28;20037;-61
2023/08/13 15:04:32;;;;;;;1.40;1.15;;;;;;;;;;8270468;28;20645;-61
2023/08/13 15:08:32;;;;;;;2.73;1.10;;;;;;;;;;8265867;28;20858;-62
2023/08/13 15:12:32;;;;;;;1.70;0.90;;;;;;;;;;8266710;28;20307;-61
2023/08/13 15:16:32;;;;;;;1.73;1.03;;;;;;;;;;8270113;28;20041;-61
2023/08/13 15:20:33;;;;;;;1.20;1.10;;;;;;;;;;8269615;28;20130;-61
2023/08/13 15:24:33;;;;;;;1.17;1.00;;;;;;;;;;8265838;28;20844;-61
2023/08/13 15:28:35;;;;;;;2.78;1.10;;;;;;;;;;8268557;28;20029;-61
2023/08/13 15:32:35;;;;;;;1.85;1.23;;;;;;;;;;8268853;28;20980;-61
2023/08/13 15:36:35;;;;;;;3.70;1.20;;;;;;;;;;8269482;28;20033;-61
2023/08/13 15:40:35;;;;;;;2.67;1.13;;;;;;;;;;8267970;28;21357;-61
2023/08/13 15:44:35;;;;;;;2.35;1.33;;;;;;;;;;8269188;28;20660;-61
2023/08/13 15:48:36;;;;;;;1.40;1.00;;;;;;;;;;8270282;28;20466;-61
2023/08/13 15:52:36;;;;;;;1.42;1.20;;;;;;;;;;8265136;28;20026;-61
2023/08/13 15:56:36;;;;;;;2.88;1.10;;;;;;;;;;8269738;28;20086;-61
2023/08/13 16:00:37;;;;;;;1.67;1.13;;;;;;;;;;8267676;28;20038;-61
2023/08/13 16:04:37;;;;;;;2.42;1.27;;;;;;;;;;8270489;28;20376;-61
2023/08/13 16:08:37;;;;;;;1.70;1.20;;;;;;;;;;8263276;28;20120;-61
2023/08/13 16:12:37;;;;;;;2.30;1.13;;;;;;;;;;8267271;28;20638;-61
2023/08/13 16:16:38;;;;;;;1.20;1.10;;;;;;;;;;8268544;28;20042;-61
2023/08/13 16:20:38;;;;;;;2.00;1.10;;;;;;;;;;8267602;28;20175;-61
2023/08/13 16:24:38;;;;;;;1.80;1.20;;;;;;;;;;8269043;28;20100;-61
2023/08/13 16:28:38;;;;;;;2.47;1.30;;;;;;;;;;8265481;28;20064;-61
2023/08/13 16:32:39;;;;;;;1.83;1.30;;;;;;;;;;8266699;28;20034;-61
2023/08/13 16:36:40;;;;;;;1.38;1.20;;;;;;;;;;8265801;28;20033;-61
2023/08/13 16:40:42;;;;;;;2.05;1.40;;;;;;;;;;8264398;28;20889;-61
2023/08/13 16:44:42;;;;;;;2.35;1.30;;;;;;;;;;8269220;28;20029;-61
2023/08/13 16:48:43;;;;;;;1.58;1.17;;;;;;;;;;8267503;28;20038;-61
2023/08/13 16:52:43;;;;;;;3.28;1.30;;;;;;;;;;8262160;28;20758;-61
2023/08/13 16:56:43;;;;;;;1.90;1.35;;;;;;;;;;8268843;28;20049;-61
2023/08/13 17:00:44;;;;;;;2.63;1.30;;;;;;;;;;8267049;28;20046;-61
2023/08/13 17:04:44;;;;;;;2.37;1.30;;;;;;;;;;8270307;28;20901;-61
2023/08/13 17:08:44;;;;;;;3.15;1.23;;;;;;;;;;8264077;28;20060;-60
2023/08/13 17:12:45;;;;;;;3.75;1.30;;;;;;;;;;8264218;28;20030;-61
2023/08/13 17:16:45;;;;;;;3.17;1.20;;;;;;;;;;8266478;28;20100;-61
2023/08/13 17:20:46;;;;;;;1.42;1.10;;;;;;;;;;8268439;28;20033;-61
2023/08/13 17:24:46;;;;;;;3.08;1.30;;;;;;;;;;8268756;28;20115;-61
2023/08/13 17:28:46;;;;;;;2.63;1.30;;;;;;;;;;8271580;28;20026;-61
2023/08/13 17:32:47;;;;;;;2.38;1.33;;;;;;;;;;8273845;28;20072;-60
2023/08/13 17:36:47;;;;;;;2.33;1.23;;;;;;;;;;8273065;28;20727;-61
2023/08/13 17:40:47;;;;;;;3.83;1.40;;;;;;;;;;8269127;28;20397;-60
2023/08/13 17:44:47;;;;;;;2.90;1.23;;;;;;;;;;8271951;28;20115;-60
2023/08/13 17:48:47;;;;;;;1.75;1.20;;;;;;;;;;8269591;28;20052;-61
2023/08/13 17:52:48;;;;;;;1.40;1.25;;;;;;;;;;8271739;28;20022;-60
2023/08/13 17:56:48;;;;;;;2.95;1.40;;;;;;;;;;8271441;28;20479;-61
2023/08/13 18:00:48;;;;;;;3.20;1.30;;;;;;;;;;8271716;28;20462;-60
2023/08/13 18:04:48;;;;;;;4.50;1.30;;;;;;;;;;8271343;28;20037;-60
2023/08/13 18:08:48;;;;;;;4.13;1.67;;;;;;;;;;8268480;28;20033;-61
2023/08/13 18:12:49;;;;;;;2.85;1.55;;;;;;;;;;8271236;28;20032;-61
2023/08/13 18:16:49;;;;;;;2.47;1.17;;;;;;;;;;8269445;28;20050;-61
2023/08/13 18:20:49;;;;;;;1.48;1.35;;;;;;;;;;8271335;28;20040;-60
2023/08/13 18:24:49;;;;;;;2.93;1.20;;;;;;;;;;8269781;28;20036;-60
2023/08/13 18:28:50;;;;;;;3.25;1.27;;;;;;;;;;8268291;28;20296;-60
2023/08/13 18:32:50;;;;;;;1.63;1.30;;;;;;;;;;8270397;28;20038;-60
2023/08/13 18:36:50;;;;;;;3.05;1.27;;;;;;;;;;8268986;28;20064;-60
2023/08/13 18:40:50;;;;;;;3.35;1.45;;;;;;;;;;8270530;28;20060;-60
2023/08/13 18:44:50;;;;;;;2.42;1.38;;;;;;;;;;8270178;28;20136;-61
2023/08/13 18:48:51;;;;;;;3.10;1.50;;;;;;;;;;8268873;28;20041;-60
2023/08/13 18:52:52;;;;;;;3.47;1.60;;;;;;;;;;8268815;28;20029;-60
2023/08/13 18:56:52;;;;;;;1.95;1.35;;;;;;;;;;8270480;28;20450;-60
2023/08/13 19:00:53;;;;;;;2.55;1.52;;;;;;;;;;8269533;28;20041;-60
2023/08/13 19:04:53;;;;;;;3.13;1.45;;;;;;;;;;8271755;28;20025;-60
2023/08/13 19:08:53;;;;;;;2.75;1.27;;;;;;;;;;8265631;28;20046;-60
2023/08/13 19:12:53;;;;;;;2.88;1.50;;;;;;;;;;8268306;28;20029;-60
2023/08/13 19:16:53;;;;;;;3.08;1.48;;;;;;;;;;8269358;28;20049;-61
2023/08/13 19:20:54;;;;;;;2.07;1.40;;;;;;;;;;8267713;28;20030;-60
2023/08/13 19:24:54;;;;;;;2.58;1.40;;;;;;;;;;8268344;28;20072;-60
2023/08/13 19:28:54;;;;;;;6.03;1.50;;;;;;;;;;8268103;28;20904;-61
2023/08/13 19:32:54;;;;;;;2.50;1.40;;;;;;;;;;8267902;28;20040;-60
2023/08/13 19:36:55;;;;;;;3.88;1.38;;;;;;;;;;8267528;28;20078;-60
2023/08/13 19:40:55;;;;;;;2.53;1.50;;;;;;;;;;8270474;28;20558;-60
2023/08/13 19:44:55;;;;;;;2.90;1.50;;;;;;;;;;8268527;28;20033;-60
2023/08/13 19:48:55;;;;;;;2.50;1.23;;;;;;;;;;8265336;28;20038;-60
2023/08/13 19:52:56;;;;;;;2.63;1.33;;;;;;;;;;8265761;28;20043;-60
2023/08/13 19:56:56;;;;;;;2.47;1.45;;;;;;;;;;8264428;28;20893;-60
2023/08/13 20:00:57;;;;;;;1.88;1.52;;;;;;;;;;8268767;28;20052;-60
2023/08/13 20:04:57;;;;;;;3.30;1.35;;;;;;;;;;8265152;28;20041;-60
2023/08/13 20:08:58;;;;;;;2.27;1.27;;;;;;;;;;8264131;28;20044;-60
2023/08/13 20:12:58;;;;;;;2.57;1.70;;;;;;;;;;8264045;28;20029;-60
2023/08/13 20:16:58;;;;;;;2.53;1.40;;;;;;;;;;8264458;28;20041;-60
2023/08/13 20:20:59;;;;;;;2.35;1.38;;;;;;;;;;8265305;28;20036;-60
2023/08/13 20:24:59;;;;;;;2.33;1.30;;;;;;;;;;8266495;28;20498;-60
2023/08/13 20:28:59;;;;;;;3.35;1.50;;;;;;;;;;8264239;28;20478;-60
2023/08/13 20:32:59;;;;;;;2.78;1.25;;;;;;;;;;8261248;28;20038;-61
2023/08/13 20:37:00;;;;;;;1.80;1.40;;;;;;;;;;8263325;28;20033;-60
2023/08/13 20:41:00;;;;;;;2.75;1.40;;;;;;;;;;8259209;28;20022;-61
2023/08/13 20:45:02;;;;;;;6.57;1.60;;;;;;;;;;8263991;28;20469;-60
2023/08/13 20:49:06;;;;;;;2.07;1.40;;;;;;;;;;8263769;28;20859;-60
2023/08/13 20:53:07;;;;;;;5.57;1.67;;;;;;;;;;8263587;28;20283;-61
2023/08/13 20:57:07;;;;;;;4.07;1.42;;;;;;;;;;8262174;28;20021;-60
2023/08/13 21:01:07;;;;;;;3.27;1.43;;;;;;;;;;8264671;28;20042;-60
2023/08/13 21:05:08;;;;;;;3.17;1.50;;;;;;;;;;8261339;28;20111;-60
2023/08/13 21:09:09;;;;;;;1.75;1.40;;;;;;;;;;8261659;28;20057;-60
2023/08/13 21:13:09;;;;;;;1.80;1.40;;;;;;;;;;8261082;28;20029;-60
2023/08/13 21:17:09;;;;;;;2.15;1.40;;;;;;;;;;8263915;28;20890;-60
2023/08/13 21:21:09;;;;;;;3.55;1.50;;;;;;;;;;8260866;28;20026;-60
2023/08/13 21:25:09;;;;;;;3.45;1.48;;;;;;;;;;8263862;28;20040;-59
2023/08/13 21:29:10;;;;;;;1.92;1.42;;;;;;;;;;8263737;28;20036;-60
2023/08/13 21:33:11;;;;;;;2.37;1.30;;;;;;;;;;8265274;28;20029;-60
2023/08/13 21:37:12;;;;;;;1.75;1.40;;;;;;;;;;8261227;28;20120;-60
2023/08/13 21:41:12;;;;;;;4.30;1.48;;;;;;;;;;8268860;28;20034;-59
2023/08/13 21:45:12;;;;;;;1.40;1.23;;;;;;;;;;8264904;28;20034;-60
2023/08/13 21:49:12;;;;;;;5.20;1.40;;;;;;;;;;8263531;28;20030;-60
2023/08/13 21:53:13;;;;;;;2.22;1.27;;;;;;;;;;8262894;28;20101;-60
2023/08/13 21:57:13;;;;;;;2.85;1.45;;;;;;;;;;8263300;28;20022;-60
2023/08/13 22:01:14;;;;;;;3.60;1.40;;;;;;;;;;8266430;28;20041;-60
2023/08/13 22:05:14;;;;;;;2.55;1.55;;;;;;;;;;8265336;28;20280;-60
2023/08/13 22:09:15;;;;;;;2.90;1.30;;;;;;;;;;8258806;28;20033;-60
2023/08/13 22:13:15;;;;;;;1.93;1.23;;;;;;;;;;8266394;28;20904;-60
2023/08/13 22:17:16;;;;;;;2.08;1.35;;;;;;;;;;8270152;28;20056;-60
2023/08/13 22:21:16;;;;;;;1.75;1.30;;;;;;;;;;8271744;28;20132;-60
2023/08/13 22:25:17;;;;;;;3.05;1.50;;;;;;;;;;8267822;28;20025;-60
2023/08/13 22:29:17;;;;;;;3.05;1.30;;;;;;;;;;8273049;28;20100;-60
2023/08/13 22:33:17;;;;;;;3.25;1.35;;;;;;;;;;8268633;28;20379;-60
2023/08/13 22:37:17;;;;;;;3.70;1.60;;;;;;;;;;8268067;28;20026;-60
2023/08/13 22:41:17;;;;;;;3.15;1.30;;;;;;;;;;8265781;28;20026;-60
2023/08/13 22:45:18;;;;;;;3.67;1.55;;;;;;;;;;8269034;28;20049;-60
2023/08/13 22:49:30;;;;;;;4.95;1.33;;;;;;;;;;8269181;28;20204;-60
2023/08/13 22:53:30;;;;;;;3.25;1.40;;;;;;;;;;8259387;28;20029;-59
2023/08/13 22:57:30;;;;;;;2.87;1.60;;;;;;;;;;8266134;28;20030;-59
2023/08/13 23:01:30;;;;;;;4.50;1.50;;;;;;;;;;8268307;28;20180;-60
2023/08/13 23:05:31;;;;;;;3.92;1.30;;;;;;;;;;8263832;28;20048;-59
2023/08/13 23:09:31;;;;;;;2.33;1.30;;;;;;;;;;8258830;28;21025;-60
2023/08/13 23:13:31;;;;;;;2.63;1.65;;;;;;;;;;8263390;28;20018;-59
2023/08/13 23:17:31;;;;;;;2.20;1.57;;;;;;;;;;8266256;28;20867;-60
2023/08/13 23:21:32;;;;;;;2.45;1.45;;;;;;;;;;8267828;28;20289;-59
2023/08/13 23:25:32;;;;;;;2.53;1.40;;;;;;;;;;8266040;28;20116;-59
2023/08/13 23:29:32;;;;;;;3.40;1.50;;;;;;;;;;8262603;28;20018;-60
2023/08/13 23:33:32;;;;;;;3.13;1.40;;;;;;;;;;8264089;28;20037;-59
2023/08/13 23:37:33;;;;;;;3.07;1.50;;;;;;;;;;8257083;28;20975;-61
2023/08/13 23:41:34;;;;;;;2.63;1.63;;;;;;;;;;8260300;28;20125;-60
2023/08/13 23:45:34;;;;;;;2.50;1.50;;;;;;;;;;8265854;28;20042;-59
2023/08/13 23:49:34;;;;;;;4.45;1.73;;;;;;;;;;8264959;28;20056;-59
2023/08/13 23:53:34;;;;;;;4.65;1.63;;;;;;;;;;8265357;28;20030;-59
2023/08/13 23:57:35;;;;;;;2.92;1.33;;;;;;;;;;8266134;28;20122;-59
